This is the latest recevied weather packets stored in our database for station/object CA3NEB-13. If no packets are shown the sender has not sent any weather packets the latest 10 day(s).
| Time | Temp. | Humidity | Pressure | Rain* | Wind** | Luminosity | Snow |
|---|---|---|---|---|---|---|---|
| 1787445214 | 20.56° C | 49% | 1012.6 hPa | - | - | - | - |
| 1787444614 | 20.56° C | 47% | 1012.3 hPa | - | - | - | - |
| 1787444014 | 21.11° C | 47% | 1012.3 hPa | - | - | - | - |
| 1787443414 | 21.11° C | 47% | 1012.4 hPa | - | - | - | - |
| 1787442814 | 21.11° C | 46% | 1012.2 hPa | - | - | - | - |
| 1787442214 | 21.11° C | 46% | 1012.2 hPa | - | - | - | - |
| 1787441614 | 21.11° C | 45% | 1012 hPa | - | - | - | - |
| 1787441014 | 21.67° C | 44% | 1011.7 hPa | - | - | - | - |
| 1787440415 | 22.22° C | 41% | 1011.4 hPa | - | - | - | - |
| 1787439814 | 21.67° C | 43% | 1011.7 hPa | - | - | - | - |
| 1787439215 | 20.56° C | 43% | 1011.9 hPa | - | - | - | - |
| 1787438614 | 20.56° C | 42% | 1011.7 hPa | - | - | - | - |
| 1787438014 | 20.56° C | 43% | 1011.7 hPa | - | - | - | - |
| 1787437414 | 20.56° C | 43% | 1011.7 hPa | - | - | - | - |
| 1787436814 | 20.56° C | 43% | 1011.5 hPa | - | - | - | - |
| 1787436214 | 20.56° C | 41% | 1011.4 hPa | - | - | - | - |
| 1787435614 | 20.56° C | 41% | 1011.4 hPa | - | - | - | - |
| 1787435014 | 20.56° C | 42% | 1011.3 hPa | - | - | - | - |
| 1787434414 | 20.56° C | 41% | 1011.3 hPa | - | - | - | - |
| 1787433814 | 20.56° C | 43% | 1011.3 hPa | - | - | - | - |
| 1787433213 | 20.56° C | 42% | 1011.2 hPa | - | - | - | - |
| 1787432614 | 20.56° C | 43% | 1011.2 hPa | - | - | - | - |
| 1787432014 | 20.56° C | 42% | 1011.1 hPa | - | - | - | - |
| 1787431413 | 20.56° C | 44% | 1011 hPa | - | - | - | - |
| 1787430814 | 20.56° C | 43% | 1010.9 hPa | - | - | - | - |
* Rain since midnight (hover to see other rain measurements)
** Current wind speed in m/s (hover to see current wind gust speed)